Pacheco, California
Current Conditions -  °F | °C
As of 6:53 PM on Friday 28 Nov 2014 (Local Time) from KCCR Reporting Station
Overcast Overcast  
Wind Chill: 59°   Ceiling: 9000
Heat Index: 59°   Visibility: 10mi
Dew Point: 51°   Wind: 8mph
Humidity: 75%   Direction: 190°S
Pressure: 29.86"   Gusts: NA
Location:  37.9788°N, 122.164°W
Report Text: KCCR 290253Z AUTO 19007KT 10SM SCT070 OVC090 15/11 A2986 RMK AO2 SLP099 T01500106 56010 TSNO
Loading
Personal Weather Stations






























Interactive Weather Map New forecast layout! Learn more

10-Day Weather Forecast

Advertisements
Track Severe Weather on mobile